Edson, Edson Airport (CYET)

NameEdson Airport
CityEdson
CountryCanada
ICAOCYET
IATAYET
Altitude928 m
CoordinatesGoogle Map
Live Air TrafficLiveATC.net
METARCYET 210100Z AUTO 22005KT 200V290 9SM CLR M03/M05 A2963 RMK SLP088
2020-01-21 01:00:00 Wind: South-Southwest (220°) 2.57 m/s - Visibility: 14484.06 m - Temperature: -3 °C - Dew point: -5 °C - Humidity: 86.3% - Pressure: 1003.39 hPa

Sorry, no flights used the airport in this database.